sensor_id;sensor_type;location;lat;lon;timestamp;pressure;altitude;pressure_sealevel;temperature;humidity
50444;BME280;36370;52.216;21.142;2022-08-11T00:01:24;101429.41;;;13.08;100.00
50444;BME280;36370;52.216;21.142;2022-08-11T00:05:27;101428.22;;;13.14;100.00
50444;BME280;36370;52.216;21.142;2022-08-11T00:09:32;101435.03;;;13.02;100.00
50444;BME280;36370;52.216;21.142;2022-08-11T00:13:42;101421.75;;;13.04;100.00
50444;BME280;36370;52.216;21.142;2022-08-11T00:17:49;101428.13;;;13.00;100.00
50444;BME280;36370;52.216;21.142;2022-08-11T00:21:52;101425.16;;;12.90;100.00
50444;BME280;36370;52.216;21.142;2022-08-11T00:26:07;101428.47;;;12.78;100.00
50444;BME280;36370;52.216;21.142;2022-08-11T00:30:12;101434.97;;;12.70;100.00
50444;BME280;36370;52.216;21.142;2022-08-11T00:34:19;101429.47;;;12.75;100.00
50444;BME280;36370;52.216;21.142;2022-08-11T00:38:24;101437.78;;;12.67;100.00
50444;BME280;36370;52.216;21.142;2022-08-11T00:43:04;101437.78;;;12.67;100.00
50444;BME280;36370;52.216;21.142;2022-08-11T00:51:54;101442.22;;;12.67;100.00
50444;BME280;36370;52.216;21.142;2022-08-11T00:56:54;101452.84;;;12.65;100.00
50444;BME280;36370;52.216;21.142;2022-08-11T01:14:09;101444.41;;;12.59;100.00
50444;BME280;36370;52.216;21.142;2022-08-11T01:23:15;101447.78;;;12.45;100.00
50444;BME280;36370;52.216;21.142;2022-08-11T01:27:44;101447.06;;;12.41;100.00
50444;BME280;36370;52.216;21.142;2022-08-11T01:37:11;101440.09;;;12.40;100.00
50444;BME280;36370;52.216;21.142;2022-08-11T01:46:19;101460.09;;;12.27;100.00
50444;BME280;36370;52.216;21.142;2022-08-11T01:54:30;101447.72;;;12.11;100.00
50444;BME280;36370;52.216;21.142;2022-08-11T02:03:13;101461.88;;;12.09;100.00
50444;BME280;36370;52.216;21.142;2022-08-11T02:07:25;101463.16;;;12.01;100.00
50444;BME280;36370;52.216;21.142;2022-08-11T02:11:36;101448.78;;;12.07;100.00
50444;BME280;36370;52.216;21.142;2022-08-11T02:15:46;101446.81;;;11.95;100.00
50444;BME280;36370;52.216;21.142;2022-08-11T02:20:00;101457.34;;;11.76;100.00
50444;BME280;36370;52.216;21.142;2022-08-11T02:24:27;101456.44;;;11.77;100.00
50444;BME280;36370;52.216;21.142;2022-08-11T02:33:23;101458.84;;;11.81;100.00
50444;BME280;36370;52.216;21.142;2022-08-11T02:41:54;101452.53;;;11.66;100.00
50444;BME280;36370;52.216;21.142;2022-08-11T02:46:50;101460.44;;;11.66;100.00
50444;BME280;36370;52.216;21.142;2022-08-11T03:00:12;101478.47;;;11.57;100.00
50444;BME280;36370;52.216;21.142;2022-08-11T03:04:21;101467.03;;;11.75;100.00
50444;BME280;36370;52.216;21.142;2022-08-11T03:08:51;101470.59;;;11.74;100.00
50444;BME280;36370;52.216;21.142;2022-08-11T03:13:15;101466.81;;;11.80;100.00
50444;BME280;36370;52.216;21.142;2022-08-11T03:22:39;101468.69;;;11.78;100.00
50444;BME280;36370;52.216;21.142;2022-08-11T03:35:10;101474.34;;;11.88;100.00
50444;BME280;36370;52.216;21.142;2022-08-11T03:44:09;101477.16;;;12.02;100.00
50444;BME280;36370;52.216;21.142;2022-08-11T03:48:27;101480.56;;;12.04;100.00
50444;BME280;36370;52.216;21.142;2022-08-11T04:29:02;101463.38;;;13.46;100.00
50444;BME280;36370;52.216;21.142;2022-08-11T04:37:51;101454.22;;;13.84;100.00
50444;BME280;36370;52.216;21.142;2022-08-11T04:42:05;101463.88;;;13.99;100.00
50444;BME280;36370;52.216;21.142;2022-08-11T04:46:47;101460.22;;;14.02;100.00
50444;BME280;36370;52.216;21.142;2022-08-11T04:56:08;101463.50;;;14.36;100.00
50444;BME280;36370;52.216;21.142;2022-08-11T05:00:49;101466.91;;;14.38;100.00
50444;BME280;36370;52.216;21.142;2022-08-11T05:05:34;101474.84;;;14.52;100.00
50444;BME280;36370;52.216;21.142;2022-08-11T05:10:09;101474.44;;;14.75;100.00
50444;BME280;36370;52.216;21.142;2022-08-11T05:14:45;101467.78;;;14.82;100.00
50444;BME280;36370;52.216;21.142;2022-08-11T05:19:23;101477.22;;;15.00;100.00
50444;BME280;36370;52.216;21.142;2022-08-11T05:24:15;101478.16;;;15.14;100.00
50444;BME280;36370;52.216;21.142;2022-08-11T05:28:41;101464.50;;;15.34;100.00
50444;BME280;36370;52.216;21.142;2022-08-11T05:33:24;101490.00;;;15.50;100.00
50444;BME280;36370;52.216;21.142;2022-08-11T05:37:51;101483.78;;;15.78;100.00
50444;BME280;36370;52.216;21.142;2022-08-11T05:42:16;101484.69;;;16.04;100.00
50444;BME280;36370;52.216;21.142;2022-08-11T05:46:43;101484.97;;;16.40;100.00
50444;BME280;36370;52.216;21.142;2022-08-11T05:51:05;101497.56;;;16.75;100.00
50444;BME280;36370;52.216;21.142;2022-08-11T05:55:32;101503.75;;;16.88;100.00
50444;BME280;36370;52.216;21.142;2022-08-11T06:00:06;101498.19;;;17.17;100.00
50444;BME280;36370;52.216;21.142;2022-08-11T06:04:20;101521.06;;;17.44;100.00
50444;BME280;36370;52.216;21.142;2022-08-11T06:08:29;101520.28;;;17.79;100.00
50444;BME280;36370;52.216;21.142;2022-08-11T06:12:33;101537.94;;;17.80;100.00
50444;BME280;36370;52.216;21.142;2022-08-11T06:16:47;101558.72;;;17.99;100.00
50444;BME280;36370;52.216;21.142;2022-08-11T06:20:55;101559.63;;;18.10;100.00
50444;BME280;36370;52.216;21.142;2022-08-11T06:25:00;101561.03;;;18.39;100.00
50444;BME280;36370;52.216;21.142;2022-08-11T06:29:04;101560.88;;;18.64;100.00
50444;BME280;36370;52.216;21.142;2022-08-11T06:42:05;101566.50;;;19.41;100.00
50444;BME280;36370;52.216;21.142;2022-08-11T06:46:23;101565.38;;;19.66;100.00
50444;BME280;36370;52.216;21.142;2022-08-11T06:50:30;101564.63;;;19.75;100.00
50444;BME280;36370;52.216;21.142;2022-08-11T06:54:52;101569.38;;;20.15;100.00
50444;BME280;36370;52.216;21.142;2022-08-11T06:59:09;101561.38;;;20.57;100.00
50444;BME280;36370;52.216;21.142;2022-08-11T07:03:34;101561.38;;;20.78;100.00
50444;BME280;36370;52.216;21.142;2022-08-11T07:08:12;101559.88;;;20.86;100.00
50444;BME280;36370;52.216;21.142;2022-08-11T07:12:39;101577.81;;;21.05;100.00
50444;BME280;36370;52.216;21.142;2022-08-11T07:17:01;101566.13;;;21.37;100.00
50444;BME280;36370;52.216;21.142;2022-08-11T07:21:10;101564.66;;;21.23;100.00
50444;BME280;36370;52.216;21.142;2022-08-11T07:25:52;101570.84;;;21.54;100.00
50444;BME280;36370;52.216;21.142;2022-08-11T07:30:16;101568.34;;;22.01;100.00
50444;BME280;36370;52.216;21.142;2022-08-11T07:34:23;101569.63;;;22.17;100.00
50444;BME280;36370;52.216;21.142;2022-08-11T07:38:39;101570.19;;;22.11;100.00
50444;BME280;36370;52.216;21.142;2022-08-11T07:42:52;101568.63;;;22.28;100.00
50444;BME280;36370;52.216;21.142;2022-08-11T07:46:55;101564.16;;;22.28;100.00
50444;BME280;36370;52.216;21.142;2022-08-11T07:51:18;101561.72;;;22.64;100.00
50444;BME280;36370;52.216;21.142;2022-08-11T07:55:41;101571.50;;;22.36;100.00
50444;BME280;36370;52.216;21.142;2022-08-11T07:59:53;101569.19;;;22.61;100.00
50444;BME280;36370;52.216;21.142;2022-08-11T08:04:18;101567.38;;;22.41;100.00
50444;BME280;36370;52.216;21.142;2022-08-11T08:08:39;101553.56;;;22.46;100.00
50444;BME280;36370;52.216;21.142;2022-08-11T08:13:02;101563.31;;;22.94;100.00
50444;BME280;36370;52.216;21.142;2022-08-11T08:17:24;101562.38;;;22.86;100.00
50444;BME280;36370;52.216;21.142;2022-08-11T08:22:05;101557.28;;;22.83;100.00
50444;BME280;36370;52.216;21.142;2022-08-11T08:26:28;101559.44;;;22.69;100.00
50444;BME280;36370;52.216;21.142;2022-08-11T08:30:53;101556.28;;;22.84;100.00
50444;BME280;36370;52.216;21.142;2022-08-11T08:34:57;101554.63;;;22.83;100.00
50444;BME280;36370;52.216;21.142;2022-08-11T08:39:01;101559.88;;;23.02;100.00
50444;BME280;36370;52.216;21.142;2022-08-11T08:43:08;101547.69;;;22.80;100.00
50444;BME280;36370;52.216;21.142;2022-08-11T08:47:17;101549.41;;;22.71;100.00
50444;BME280;36370;52.216;21.142;2022-08-11T08:51:40;101547.84;;;23.44;100.00
50444;BME280;36370;52.216;21.142;2022-08-11T08:56:06;101561.88;;;23.38;100.00
50444;BME280;36370;52.216;21.142;2022-08-11T09:00:09;101550.84;;;23.41;100.00
50444;BME280;36370;52.216;21.142;2022-08-11T09:04:17;101550.53;;;23.26;100.00
50444;BME280;36370;52.216;21.142;2022-08-11T09:08:23;101549.72;;;23.43;100.00
50444;BME280;36370;52.216;21.142;2022-08-11T09:12:27;101554.03;;;23.72;100.00
50444;BME280;36370;52.216;21.142;2022-08-11T09:16:39;101544.22;;;23.81;100.00
50444;BME280;36370;52.216;21.142;2022-08-11T09:20:42;101546.44;;;23.67;100.00
50444;BME280;36370;52.216;21.142;2022-08-11T09:24:44;101544.31;;;24.07;100.00
50444;BME280;36370;52.216;21.142;2022-08-11T09:29:07;101536.03;;;24.18;100.00
50444;BME280;36370;52.216;21.142;2022-08-11T09:33:14;101539.78;;;24.26;100.00
50444;BME280;36370;52.216;21.142;2022-08-11T09:37:17;101526.78;;;24.39;100.00
50444;BME280;36370;52.216;21.142;2022-08-11T09:41:57;101524.34;;;24.54;100.00
50444;BME280;36370;52.216;21.142;2022-08-11T09:46:05;101521.63;;;24.46;100.00
50444;BME280;36370;52.216;21.142;2022-08-11T09:50:09;101528.25;;;24.33;100.00
50444;BME280;36370;52.216;21.142;2022-08-11T09:54:12;101518.09;;;24.01;100.00
50444;BME280;36370;52.216;21.142;2022-08-11T09:58:14;101520.72;;;23.93;100.00
50444;BME280;36370;52.216;21.142;2022-08-11T10:02:45;101510.25;;;24.52;100.00
50444;BME280;36370;52.216;21.142;2022-08-11T10:06:49;101508.38;;;24.70;100.00
50444;BME280;36370;52.216;21.142;2022-08-11T10:11:13;101510.25;;;24.08;100.00
50444;BME280;36370;52.216;21.142;2022-08-11T10:15:18;101510.88;;;23.65;100.00
50444;BME280;36370;52.216;21.142;2022-08-11T10:19:37;101513.75;;;23.08;100.00
50444;BME280;36370;52.216;21.142;2022-08-11T10:23:41;101506.13;;;23.59;100.00
50444;BME280;36370;52.216;21.142;2022-08-11T10:28:08;101493.06;;;24.18;100.00
50444;BME280;36370;52.216;21.142;2022-08-11T10:32:32;101494.38;;;24.14;100.00
50444;BME280;36370;52.216;21.142;2022-08-11T10:37:00;101478.44;;;24.39;100.00
50444;BME280;36370;52.216;21.142;2022-08-11T10:41:06;101474.78;;;23.96;100.00
50444;BME280;36370;52.216;21.142;2022-08-11T10:45:37;101464.19;;;24.47;100.00
50444;BME280;36370;52.216;21.142;2022-08-11T10:49:58;101455.00;;;24.84;100.00
50444;BME280;36370;52.216;21.142;2022-08-11T10:54:20;101459.53;;;24.49;100.00
50444;BME280;36370;52.216;21.142;2022-08-11T10:58:42;101446.44;;;24.19;100.00
50444;BME280;36370;52.216;21.142;2022-08-11T11:02:51;101444.59;;;24.20;100.00
50444;BME280;36370;52.216;21.142;2022-08-11T11:07:21;101447.63;;;24.25;100.00
50444;BME280;36370;52.216;21.142;2022-08-11T11:11:26;101438.41;;;24.28;100.00
50444;BME280;36370;52.216;21.142;2022-08-11T11:15:49;101417.34;;;25.26;100.00
50444;BME280;36370;52.216;21.142;2022-08-11T11:20:13;101417.22;;;25.53;100.00
50444;BME280;36370;52.216;21.142;2022-08-11T11:38:13;101414.34;;;25.46;100.00
50444;BME280;36370;52.216;21.142;2022-08-11T11:42:16;101398.88;;;25.65;100.00
50444;BME280;36370;52.216;21.142;2022-08-11T11:46:20;101404.59;;;25.37;100.00
50444;BME280;36370;52.216;21.142;2022-08-11T11:50:35;101403.47;;;24.97;100.00
50444;BME280;36370;52.216;21.142;2022-08-11T11:54:38;101391.19;;;24.86;100.00
50444;BME280;36370;52.216;21.142;2022-08-11T11:58:41;101384.78;;;24.79;100.00
50444;BME280;36370;52.216;21.142;2022-08-11T12:03:06;101386.44;;;25.39;100.00
50444;BME280;36370;52.216;21.142;2022-08-11T12:07:10;101391.31;;;24.76;100.00
50444;BME280;36370;52.216;21.142;2022-08-11T12:11:32;101389.44;;;24.34;100.00
50444;BME280;36370;52.216;21.142;2022-08-11T12:15:52;101390.09;;;24.01;100.00
50444;BME280;36370;52.216;21.142;2022-08-11T12:20:18;101388.75;;;23.97;100.00
50444;BME280;36370;52.216;21.142;2022-08-11T12:24:35;101375.13;;;23.73;100.00
50444;BME280;36370;52.216;21.142;2022-08-11T12:28:58;101371.41;;;24.52;100.00
50444;BME280;36370;52.216;21.142;2022-08-11T12:33:02;101369.63;;;25.45;95.42
50444;BME280;36370;52.216;21.142;2022-08-11T12:37:05;101367.91;;;25.77;100.00
50444;BME280;36370;52.216;21.142;2022-08-11T12:41:16;101375.00;;;25.37;95.16
50444;BME280;36370;52.216;21.142;2022-08-11T12:45:40;101366.25;;;24.59;100.00
50444;BME280;36370;52.216;21.142;2022-08-11T12:49:47;101376.53;;;24.37;100.00
50444;BME280;36370;52.216;21.142;2022-08-11T12:58:29;101374.16;;;24.34;100.00
50444;BME280;36370;52.216;21.142;2022-08-11T13:02:32;101381.38;;;24.34;100.00
50444;BME280;36370;52.216;21.142;2022-08-11T13:06:53;101375.03;;;24.69;100.00
50444;BME280;36370;52.216;21.142;2022-08-11T13:10:57;101369.19;;;24.90;100.00
50444;BME280;36370;52.216;21.142;2022-08-11T13:15:21;101368.84;;;24.94;100.00
50444;BME280;36370;52.216;21.142;2022-08-11T13:19:25;101374.22;;;24.94;100.00
50444;BME280;36370;52.216;21.142;2022-08-11T13:23:27;101368.69;;;24.87;100.00
50444;BME280;36370;52.216;21.142;2022-08-11T13:27:30;101379.50;;;25.28;100.00
50444;BME280;36370;52.216;21.142;2022-08-11T13:31:33;101370.28;;;25.31;100.00
50444;BME280;36370;52.216;21.142;2022-08-11T13:35:36;101359.16;;;25.17;100.00
50444;BME280;36370;52.216;21.142;2022-08-11T13:39:42;101362.00;;;24.99;100.00
50444;BME280;36370;52.216;21.142;2022-08-11T13:43:48;101370.28;;;25.31;100.00
50444;BME280;36370;52.216;21.142;2022-08-11T13:47:56;101365.75;;;25.39;100.00
50444;BME280;36370;52.216;21.142;2022-08-11T13:51:58;101368.63;;;25.38;100.00
50444;BME280;36370;52.216;21.142;2022-08-11T13:56:01;101373.09;;;25.21;100.00
50444;BME280;36370;52.216;21.142;2022-08-11T14:00:07;101361.00;;;25.17;100.00
50444;BME280;36370;52.216;21.142;2022-08-11T14:04:39;101354.41;;;24.95;100.00
50444;BME280;36370;52.216;21.142;2022-08-11T14:08:43;101367.31;;;24.75;100.00
50444;BME280;36370;52.216;21.142;2022-08-11T14:12:58;101363.47;;;24.43;100.00
50444;BME280;36370;52.216;21.142;2022-08-11T14:17:20;101375.34;;;24.32;100.00
50444;BME280;36370;52.216;21.142;2022-08-11T14:21:44;101379.09;;;24.13;100.00
50444;BME280;36370;52.216;21.142;2022-08-11T14:26:09;101385.03;;;23.98;100.00
50444;BME280;36370;52.216;21.142;2022-08-11T14:30:26;101371.13;;;23.77;100.00
50444;BME280;36370;52.216;21.142;2022-08-11T14:34:49;101369.06;;;23.71;100.00
50444;BME280;36370;52.216;21.142;2022-08-11T14:38:52;101367.16;;;24.07;100.00
50444;BME280;36370;52.216;21.142;2022-08-11T14:42:55;101361.16;;;25.07;100.00
50444;BME280;36370;52.216;21.142;2022-08-11T14:47:18;101366.03;;;25.20;100.00
50444;BME280;36370;52.216;21.142;2022-08-11T14:51:26;101360.16;;;24.49;100.00
50444;BME280;36370;52.216;21.142;2022-08-11T14:55:34;101348.16;;;23.74;100.00
50444;BME280;36370;52.216;21.142;2022-08-11T14:59:58;101341.00;;;24.09;100.00
50444;BME280;36370;52.216;21.142;2022-08-11T15:04:01;101339.25;;;24.69;100.00
50444;BME280;36370;52.216;21.142;2022-08-11T15:08:26;101331.22;;;24.85;100.00
50444;BME280;36370;52.216;21.142;2022-08-11T15:12:48;101338.13;;;24.80;100.00
50444;BME280;36370;52.216;21.142;2022-08-11T15:16:52;101343.66;;;24.86;100.00
50444;BME280;36370;52.216;21.142;2022-08-11T15:21:09;101337.81;;;25.16;100.00
50444;BME280;36370;52.216;21.142;2022-08-11T15:25:31;101334.09;;;25.08;100.00
50444;BME280;36370;52.216;21.142;2022-08-11T15:29:37;101335.75;;;24.77;100.00
50444;BME280;36370;52.216;21.142;2022-08-11T15:34:03;101330.59;;;25.08;100.00
50444;BME280;36370;52.216;21.142;2022-08-11T15:38:25;101328.38;;;24.95;100.00
50444;BME280;36370;52.216;21.142;2022-08-11T15:42:30;101318.59;;;24.86;100.00
50444;BME280;36370;52.216;21.142;2022-08-11T15:46:54;101325.06;;;25.51;100.00
50444;BME280;36370;52.216;21.142;2022-08-11T15:51:09;101312.56;;;25.83;100.00
50444;BME280;36370;52.216;21.142;2022-08-11T15:55:12;101320.81;;;24.90;100.00
50444;BME280;36370;52.216;21.142;2022-08-11T15:59:17;101327.56;;;25.19;100.00
50444;BME280;36370;52.216;21.142;2022-08-11T16:03:50;101325.69;;;24.87;100.00
50444;BME280;36370;52.216;21.142;2022-08-11T16:08:16;101309.75;;;25.18;100.00
50444;BME280;36370;52.216;21.142;2022-08-11T16:12:45;101318.13;;;24.90;100.00
50444;BME280;36370;52.216;21.142;2022-08-11T16:17:10;101321.72;;;24.57;100.00
50444;BME280;36370;52.216;21.142;2022-08-11T16:21:18;101312.31;;;24.52;100.00
50444;BME280;36370;52.216;21.142;2022-08-11T16:25:35;101313.28;;;24.00;100.00
50444;BME280;36370;52.216;21.142;2022-08-11T16:29:58;101314.00;;;23.84;100.00
50444;BME280;36370;52.216;21.142;2022-08-11T16:34:02;101317.75;;;23.47;100.00
50444;BME280;36370;52.216;21.142;2022-08-11T16:38:06;101311.44;;;23.30;100.00
50444;BME280;36370;52.216;21.142;2022-08-11T16:42:28;101314.91;;;23.23;100.00
50444;BME280;36370;52.216;21.142;2022-08-11T16:47:13;101309.97;;;23.00;100.00
50444;BME280;36370;52.216;21.142;2022-08-11T16:51:17;101308.44;;;22.80;100.00
50444;BME280;36370;52.216;21.142;2022-08-11T16:55:21;101307.44;;;22.81;100.00
50444;BME280;36370;52.216;21.142;2022-08-11T16:59:44;101305.66;;;22.71;100.00
50444;BME280;36370;52.216;21.142;2022-08-11T17:03:52;101300.81;;;22.57;100.00
50444;BME280;36370;52.216;21.142;2022-08-11T17:08:17;101305.59;;;22.35;100.00
50444;BME280;36370;52.216;21.142;2022-08-11T17:12:40;101302.94;;;22.26;100.00
50444;BME280;36370;52.216;21.142;2022-08-11T17:17:11;101295.72;;;22.08;100.00
50444;BME280;36370;52.216;21.142;2022-08-11T17:25:17;101315.31;;;21.89;100.00
50444;BME280;36370;52.216;21.142;2022-08-11T17:33:26;101318.25;;;22.05;100.00
50444;BME280;36370;52.216;21.142;2022-08-11T17:37:49;101313.03;;;22.04;100.00
50444;BME280;36370;52.216;21.142;2022-08-11T17:41:52;101313.03;;;22.04;100.00
50444;BME280;36370;52.216;21.142;2022-08-11T17:46:17;101313.72;;;22.06;100.00
50444;BME280;36370;52.216;21.142;2022-08-11T17:50:40;101310.94;;;21.98;100.00
50444;BME280;36370;52.216;21.142;2022-08-11T17:54:42;101326.44;;;21.94;100.00
50444;BME280;36370;52.216;21.142;2022-08-11T17:59:09;101337.16;;;21.94;100.00
50444;BME280;36370;52.216;21.142;2022-08-11T18:03:34;101353.66;;;21.90;100.00
50444;BME280;36370;52.216;21.142;2022-08-11T18:07:42;101375.84;;;22.10;100.00
50444;BME280;36370;52.216;21.142;2022-08-11T18:12:05;101355.88;;;21.94;100.00
50444;BME280;36370;52.216;21.142;2022-08-11T18:16:26;101353.09;;;21.76;100.00
50444;BME280;36370;52.216;21.142;2022-08-11T18:20:47;101353.84;;;21.59;100.00
50444;BME280;36370;52.216;21.142;2022-08-11T18:25:13;101359.31;;;21.67;100.00
50444;BME280;36370;52.216;21.142;2022-08-11T18:29:38;101350.63;;;21.55;100.00
50444;BME280;36370;52.216;21.142;2022-08-11T18:34:11;101335.13;;;21.29;100.00
50444;BME280;36370;52.216;21.142;2022-08-11T18:38:33;101354.66;;;21.20;100.00
50444;BME280;36370;52.216;21.142;2022-08-11T18:42:57;101349.88;;;21.14;100.00
50444;BME280;36370;52.216;21.142;2022-08-11T18:47:23;101336.66;;;20.93;100.00
50444;BME280;36370;52.216;21.142;2022-08-11T18:51:51;101326.50;;;20.77;100.00
50444;BME280;36370;52.216;21.142;2022-08-11T18:56:14;101304.97;;;20.69;100.00
50444;BME280;36370;52.216;21.142;2022-08-11T19:00:37;101303.66;;;20.63;100.00
50444;BME280;36370;52.216;21.142;2022-08-11T19:04:59;101314.91;;;20.16;100.00
50444;BME280;36370;52.216;21.142;2022-08-11T19:09:44;101324.84;;;20.45;100.00
50444;BME280;36370;52.216;21.142;2022-08-11T19:14:07;101331.31;;;20.42;100.00
50444;BME280;36370;52.216;21.142;2022-08-11T19:18:30;101329.88;;;20.38;100.00
50444;BME280;36370;52.216;21.142;2022-08-11T19:22:53;101315.97;;;20.35;100.00
50444;BME280;36370;52.216;21.142;2022-08-11T19:27:15;101319.47;;;20.35;100.00
50444;BME280;36370;52.216;21.142;2022-08-11T19:31:39;101328.31;;;20.26;100.00
50444;BME280;36370;52.216;21.142;2022-08-11T19:36:00;101309.56;;;20.16;100.00
50444;BME280;36370;52.216;21.142;2022-08-11T19:40:22;101292.03;;;20.14;100.00
50444;BME280;36370;52.216;21.142;2022-08-11T19:44:44;101306.44;;;20.01;100.00
50444;BME280;36370;52.216;21.142;2022-08-11T19:49:05;101286.31;;;19.76;100.00
50444;BME280;36370;52.216;21.142;2022-08-11T19:53:28;101299.63;;;19.87;100.00
50444;BME280;36370;52.216;21.142;2022-08-11T19:57:50;101299.56;;;19.78;100.00
50444;BME280;36370;52.216;21.142;2022-08-11T20:02:11;101276.41;;;19.57;100.00
50444;BME280;36370;52.216;21.142;2022-08-11T20:06:34;101276.78;;;19.52;100.00
50444;BME280;36370;52.216;21.142;2022-08-11T20:10:58;101261.47;;;19.45;100.00
50444;BME280;36370;52.216;21.142;2022-08-11T20:15:21;101274.66;;;19.25;100.00
50444;BME280;36370;52.216;21.142;2022-08-11T20:19:43;101254.13;;;19.16;100.00
50444;BME280;36370;52.216;21.142;2022-08-11T20:24:04;101250.53;;;19.06;100.00
50444;BME280;36370;52.216;21.142;2022-08-11T20:28:26;101245.41;;;19.14;100.00
50444;BME280;36370;52.216;21.142;2022-08-11T20:32:48;101257.94;;;19.02;100.00
50444;BME280;36370;52.216;21.142;2022-08-11T20:37:10;101254.81;;;18.97;100.00
50444;BME280;36370;52.216;21.142;2022-08-11T20:41:32;101249.59;;;18.95;100.00
50444;BME280;36370;52.216;21.142;2022-08-11T20:46:05;101239.09;;;18.94;100.00
50444;BME280;36370;52.216;21.142;2022-08-11T20:50:27;101252.41;;;18.94;100.00
50444;BME280;36370;52.216;21.142;2022-08-11T20:54:51;101227.84;;;18.90;100.00
50444;BME280;36370;52.216;21.142;2022-08-11T20:59:28;101236.69;;;18.91;100.00
50444;BME280;36370;52.216;21.142;2022-08-11T21:03:58;101231.84;;;18.96;100.00
50444;BME280;36370;52.216;21.142;2022-08-11T21:08:24;101232.66;;;18.96;100.00
50444;BME280;36370;52.216;21.142;2022-08-11T21:12:48;101223.72;;;18.97;100.00
50444;BME280;36370;52.216;21.142;2022-08-11T21:17:30;101246.31;;;19.03;100.00
50444;BME280;36370;52.216;21.142;2022-08-11T21:22:08;101247.75;;;19.07;100.00
50444;BME280;36370;52.216;21.142;2022-08-11T21:26:32;101266.13;;;19.10;100.00
50444;BME280;36370;52.216;21.142;2022-08-11T21:30:55;101253.53;;;19.12;100.00
50444;BME280;36370;52.216;21.142;2022-08-11T21:35:17;101266.69;;;19.25;100.00
50444;BME280;36370;52.216;21.142;2022-08-11T21:39:48;101294.22;;;19.35;100.00
50444;BME280;36370;52.216;21.142;2022-08-11T21:44:09;101282.91;;;19.43;100.00
50444;BME280;36370;52.216;21.142;2022-08-11T21:48:30;101281.94;;;19.44;100.00
50444;BME280;36370;52.216;21.142;2022-08-11T21:52:51;101294.19;;;19.47;100.00
50444;BME280;36370;52.216;21.142;2022-08-11T21:57:13;101313.78;;;19.46;100.00
50444;BME280;36370;52.216;21.142;2022-08-11T22:01:35;101302.16;;;19.47;100.00
50444;BME280;36370;52.216;21.142;2022-08-11T22:05:56;101323.81;;;19.53;100.00
50444;BME280;36370;52.216;21.142;2022-08-11T22:10:18;101302.22;;;19.57;100.00
50444;BME280;36370;52.216;21.142;2022-08-11T22:14:44;101321.31;;;19.62;100.00
50444;BME280;36370;52.216;21.142;2022-08-11T22:19:05;101314.56;;;19.58;100.00
50444;BME280;36370;52.216;21.142;2022-08-11T22:23:28;101292.78;;;19.52;100.00
50444;BME280;36370;52.216;21.142;2022-08-11T22:27:51;101277.06;;;19.49;100.00
50444;BME280;36370;52.216;21.142;2022-08-11T22:32:12;101254.72;;;19.41;100.00
50444;BME280;36370;52.216;21.142;2022-08-11T22:36:33;101235.03;;;19.32;100.00
50444;BME280;36370;52.216;21.142;2022-08-11T22:40:55;101238.59;;;19.21;100.00
50444;BME280;36370;52.216;21.142;2022-08-11T22:45:17;101221.66;;;19.22;100.00
50444;BME280;36370;52.216;21.142;2022-08-11T22:49:38;101236.06;;;19.19;100.00
50444;BME280;36370;52.216;21.142;2022-08-11T22:54:02;101253.13;;;19.17;100.00
50444;BME280;36370;52.216;21.142;2022-08-11T22:58:48;101249.38;;;19.19;100.00
50444;BME280;36370;52.216;21.142;2022-08-11T23:03:11;101282.66;;;19.25;100.00
50444;BME280;36370;52.216;21.142;2022-08-11T23:07:40;101291.09;;;19.30;100.00
50444;BME280;36370;52.216;21.142;2022-08-11T23:12:01;101303.34;;;19.33;100.00
50444;BME280;36370;52.216;21.142;2022-08-11T23:16:23;101293.56;;;19.43;100.00
50444;BME280;36370;52.216;21.142;2022-08-11T23:20:44;101286.44;;;19.44;100.00
50444;BME280;36370;52.216;21.142;2022-08-11T23:25:05;101295.97;;;19.46;100.00
50444;BME280;36370;52.216;21.142;2022-08-11T23:29:27;101295.47;;;19.52;100.00
50444;BME280;36370;52.216;21.142;2022-08-11T23:33:53;101286.56;;;19.42;100.00
50444;BME280;36370;52.216;21.142;2022-08-11T23:38:36;101273.75;;;19.36;100.00
50444;BME280;36370;52.216;21.142;2022-08-11T23:42:57;101266.28;;;19.30;100.00
50444;BME280;36370;52.216;21.142;2022-08-11T23:47:18;101282.16;;;19.31;100.00
50444;BME280;36370;52.216;21.142;2022-08-11T23:51:52;101276.56;;;19.34;100.00
50444;BME280;36370;52.216;21.142;2022-08-11T23:56:13;101291.03;;;19.42;100.00
